sensor_id;sensor_type;location;lat;lon;timestamp;pressure;altitude;pressure_sealevel;temperature;humidity
70458;BME280;57919;56.194;95.716;2022-10-31T00:00:18;100503.53;;;-9.88;66.64
70458;BME280;57919;56.194;95.716;2022-10-31T00:10:20;100509.25;;;-10.13;66.71
70458;BME280;57919;56.194;95.716;2022-10-31T00:20:22;100513.63;;;-10.12;66.84
70458;BME280;57919;56.194;95.716;2022-10-31T00:30:24;100516.34;;;-10.06;66.80
70458;BME280;57919;56.194;95.716;2022-10-31T00:40:26;100517.28;;;-10.02;66.82
70458;BME280;57919;56.194;95.716;2022-10-31T00:50:28;100525.25;;;-9.93;66.68
70458;BME280;57919;56.194;95.716;2022-10-31T01:00:30;100520.81;;;-9.99;66.96
70458;BME280;57919;56.194;95.716;2022-10-31T01:10:32;100488.75;;;-9.84;67.44
70458;BME280;57919;56.194;95.716;2022-10-31T01:20:34;100511.75;;;-9.62;66.78
70458;BME280;57919;56.194;95.716;2022-10-31T01:30:38;100492.69;;;-9.52;66.96
70458;BME280;57919;56.194;95.716;2022-10-31T01:40:40;100496.47;;;-9.27;66.43
70458;BME280;57919;56.194;95.716;2022-10-31T01:50:43;100481.31;;;-8.76;66.41
70458;BME280;57919;56.194;95.716;2022-10-31T02:00:50;100477.50;;;-8.04;65.64
70458;BME280;57919;56.194;95.716;2022-10-31T02:10:54;100467.41;;;-7.22;64.99
70458;BME280;57919;56.194;95.716;2022-10-31T02:21:20;100463.16;;;-6.01;64.08
70458;BME280;57919;56.194;95.716;2022-10-31T02:32:11;100453.75;;;-4.63;62.91
70458;BME280;57919;56.194;95.716;2022-10-31T02:52:01;100432.97;;;-2.62;60.48
70458;BME280;57919;56.194;95.716;2022-10-31T03:02:18;100424.59;;;-2.35;60.58
70458;BME280;57919;56.194;95.716;2022-10-31T03:12:29;100420.91;;;-1.32;59.08
70458;BME280;57919;56.194;95.716;2022-10-31T03:22:33;100413.06;;;-0.58;57.69
70458;BME280;57919;56.194;95.716;2022-10-31T03:32:46;100389.06;;;-0.19;56.87
70458;BME280;57919;56.194;95.716;2022-10-31T03:43:00;100379.44;;;0.09;55.86
70458;BME280;57919;56.194;95.716;2022-10-31T03:53:16;100371.03;;;0.24;55.10
70458;BME280;57919;56.194;95.716;2022-10-31T04:03:27;100371.72;;;-0.70;55.54
70458;BME280;57919;56.194;95.716;2022-10-31T04:13:34;100351.22;;;0.35;54.00
70458;BME280;57919;56.194;95.716;2022-10-31T04:23:44;100336.44;;;0.85;52.76
70458;BME280;57919;56.194;95.716;2022-10-31T04:33:56;100330.50;;;0.15;52.86
70458;BME280;57919;56.194;95.716;2022-10-31T04:43:58;100329.84;;;-0.26;52.17
70458;BME280;57919;56.194;95.716;2022-10-31T04:54:02;100323.28;;;-0.13;52.17
70458;BME280;57919;56.194;95.716;2022-10-31T05:04:22;100311.59;;;0.25;50.57
70458;BME280;57919;56.194;95.716;2022-10-31T05:14:25;100303.22;;;0.08;50.94
70458;BME280;57919;56.194;95.716;2022-10-31T05:24:45;100299.38;;;0.18;50.22
70458;BME280;57919;56.194;95.716;2022-10-31T05:34:48;100293.22;;;-0.15;50.72
70458;BME280;57919;56.194;95.716;2022-10-31T05:45:19;100289.13;;;0.05;50.93
70458;BME280;57919;56.194;95.716;2022-10-31T05:55:28;100283.94;;;0.00;50.23
70458;BME280;57919;56.194;95.716;2022-10-31T06:06:00;100284.22;;;-0.11;51.12
70458;BME280;57919;56.194;95.716;2022-10-31T06:16:10;100271.81;;;-0.10;50.06
70458;BME280;57919;56.194;95.716;2022-10-31T06:26:14;100276.75;;;-0.29;50.25
70458;BME280;57919;56.194;95.716;2022-10-31T06:36:16;100275.19;;;-0.36;50.90
70458;BME280;57919;56.194;95.716;2022-10-31T06:46:19;100271.78;;;-0.41;51.42
70458;BME280;57919;56.194;95.716;2022-10-31T06:56:34;100273.81;;;-0.18;50.57
70458;BME280;57919;56.194;95.716;2022-10-31T07:06:38;100261.91;;;-0.05;51.01
70458;BME280;57919;56.194;95.716;2022-10-31T07:16:40;100273.25;;;0.02;51.17
70458;BME280;57919;56.194;95.716;2022-10-31T07:26:46;100267.44;;;-0.13;50.53
70458;BME280;57919;56.194;95.716;2022-10-31T07:36:50;100274.91;;;0.06;51.30
70458;BME280;57919;56.194;95.716;2022-10-31T07:46:54;100263.41;;;0.05;51.35
70458;BME280;57919;56.194;95.716;2022-10-31T07:57:28;100254.31;;;-0.19;51.03
70458;BME280;57919;56.194;95.716;2022-10-31T08:07:35;100264.34;;;-0.28;51.41
70458;BME280;57919;56.194;95.716;2022-10-31T08:17:41;100253.63;;;-0.25;51.41
70458;BME280;57919;56.194;95.716;2022-10-31T08:27:50;100259.66;;;-0.51;51.70
70458;BME280;57919;56.194;95.716;2022-10-31T08:37:56;100260.13;;;-0.70;52.21
70458;BME280;57919;56.194;95.716;2022-10-31T08:48:03;100259.44;;;-0.78;52.26
70458;BME280;57919;56.194;95.716;2022-10-31T08:58:14;100254.50;;;-0.91;52.74
70458;BME280;57919;56.194;95.716;2022-10-31T09:08:23;100250.56;;;-1.12;53.68
70458;BME280;57919;56.194;95.716;2022-10-31T09:18:26;100238.06;;;-1.44;54.19
70458;BME280;57919;56.194;95.716;2022-10-31T09:28:34;100255.78;;;-1.45;54.53
70458;BME280;57919;56.194;95.716;2022-10-31T09:38:45;100257.13;;;-1.66;54.81
70458;BME280;57919;56.194;95.716;2022-10-31T09:59:39;100253.59;;;-2.08;56.40
70458;BME280;57919;56.194;95.716;2022-10-31T10:09:41;100248.59;;;-2.23;56.88
70458;BME280;57919;56.194;95.716;2022-10-31T10:30:47;100246.47;;;-2.49;57.06
70458;BME280;57919;56.194;95.716;2022-10-31T10:40:52;100245.00;;;-2.65;57.73
70458;BME280;57919;56.194;95.716;2022-10-31T10:50:55;100252.28;;;-2.78;57.69
70458;BME280;57919;56.194;95.716;2022-10-31T11:00:56;100252.63;;;-2.98;58.00
70458;BME280;57919;56.194;95.716;2022-10-31T11:11:00;100260.78;;;-3.10;58.41
70458;BME280;57919;56.194;95.716;2022-10-31T11:21:03;100262.72;;;-3.21;58.62
70458;BME280;57919;56.194;95.716;2022-10-31T11:31:08;100275.19;;;-3.29;58.71
70458;BME280;57919;56.194;95.716;2022-10-31T11:41:36;100277.16;;;-3.42;58.49
70458;BME280;57919;56.194;95.716;2022-10-31T11:51:48;100277.34;;;-3.55;58.54
70458;BME280;57919;56.194;95.716;2022-10-31T12:01:52;100280.91;;;-3.58;59.21
70458;BME280;57919;56.194;95.716;2022-10-31T13:14:40;100300.31;;;-4.33;59.61
70458;BME280;57919;56.194;95.716;2022-10-31T13:34:56;100300.75;;;-4.75;59.98
70458;BME280;57919;56.194;95.716;2022-10-31T13:45:22;100298.28;;;-4.97;60.56
70458;BME280;57919;56.194;95.716;2022-10-31T13:55:41;100295.88;;;-5.24;60.88
70458;BME280;57919;56.194;95.716;2022-10-31T14:05:52;100297.91;;;-5.69;61.27
70458;BME280;57919;56.194;95.716;2022-10-31T14:16:02;100297.09;;;-5.81;61.63
70458;BME280;57919;56.194;95.716;2022-10-31T14:36:43;100300.78;;;-6.16;61.93
70458;BME280;57919;56.194;95.716;2022-10-31T14:57:07;100295.63;;;-6.49;62.29
70458;BME280;57919;56.194;95.716;2022-10-31T15:07:20;100285.09;;;-6.56;62.86
70458;BME280;57919;56.194;95.716;2022-10-31T15:17:24;100288.66;;;-6.72;62.54
70458;BME280;57919;56.194;95.716;2022-10-31T15:27:27;100284.28;;;-6.99;62.52
70458;BME280;57919;56.194;95.716;2022-10-31T15:37:31;100288.66;;;-7.04;62.92
70458;BME280;57919;56.194;95.716;2022-10-31T15:47:33;100278.16;;;-7.18;62.99
70458;BME280;57919;56.194;95.716;2022-10-31T15:58:10;100288.66;;;-7.27;63.40
70458;BME280;57919;56.194;95.716;2022-10-31T16:18:35;100293.91;;;-7.40;63.65
70458;BME280;57919;56.194;95.716;2022-10-31T16:28:38;100283.38;;;-7.50;63.44
70458;BME280;57919;56.194;95.716;2022-10-31T16:38:41;100298.25;;;-7.56;63.63
70458;BME280;57919;56.194;95.716;2022-10-31T16:48:42;100289.47;;;-7.69;63.53
70458;BME280;57919;56.194;95.716;2022-10-31T16:58:45;100289.47;;;-7.76;63.56
70458;BME280;57919;56.194;95.716;2022-10-31T17:08:46;100264.91;;;-7.92;64.02
70458;BME280;57919;56.194;95.716;2022-10-31T17:18:48;100289.47;;;-7.75;63.57
70458;BME280;57919;56.194;95.716;2022-10-31T17:28:50;100266.63;;;-7.99;63.92
70458;BME280;57919;56.194;95.716;2022-10-31T17:38:52;100300.75;;;-8.00;64.00
70458;BME280;57919;56.194;95.716;2022-10-31T17:48:54;100291.03;;;-8.27;64.25
70458;BME280;57919;56.194;95.716;2022-10-31T17:58:56;100293.63;;;-8.32;64.28
70458;BME280;57919;56.194;95.716;2022-10-31T18:09:02;100286.59;;;-8.43;64.48
70458;BME280;57919;56.194;95.716;2022-10-31T18:19:03;100291.00;;;-8.29;64.22
70458;BME280;57919;56.194;95.716;2022-10-31T18:29:06;100249.81;;;-8.56;64.21
70458;BME280;57919;56.194;95.716;2022-10-31T18:39:09;100288.31;;;-8.49;64.88
70458;BME280;57919;56.194;95.716;2022-10-31T18:49:11;100273.41;;;-8.59;64.24
70458;BME280;57919;56.194;95.716;2022-10-31T18:59:13;100289.16;;;-8.56;64.41
70458;BME280;57919;56.194;95.716;2022-10-31T19:09:15;100285.69;;;-8.53;64.32
70458;BME280;57919;56.194;95.716;2022-10-31T19:19:17;100288.28;;;-8.58;64.32
70458;BME280;57919;56.194;95.716;2022-10-31T19:29:21;100283.00;;;-8.64;64.36
70458;BME280;57919;56.194;95.716;2022-10-31T19:39:22;100303.00;;;-8.76;64.11
70458;BME280;57919;56.194;95.716;2022-10-31T19:49:24;100304.59;;;-9.00;64.24
70458;BME280;57919;56.194;95.716;2022-10-31T19:59:26;100285.09;;;-9.35;64.50
70458;BME280;57919;56.194;95.716;2022-10-31T20:09:28;100300.53;;;-9.63;64.94
70458;BME280;57919;56.194;95.716;2022-10-31T20:19:30;100298.13;;;-9.41;64.96
70458;BME280;57919;56.194;95.716;2022-10-31T20:29:32;100303.44;;;-9.34;64.49
70458;BME280;57919;56.194;95.716;2022-10-31T20:39:34;100301.69;;;-9.33;64.75
70458;BME280;57919;56.194;95.716;2022-10-31T20:49:37;100279.66;;;-9.57;64.44
70458;BME280;57919;56.194;95.716;2022-10-31T20:59:39;100311.13;;;-9.51;64.66
70458;BME280;57919;56.194;95.716;2022-10-31T21:09:41;100300.38;;;-9.78;64.73
70458;BME280;57919;56.194;95.716;2022-10-31T21:19:43;100311.78;;;-9.73;64.78
70458;BME280;57919;56.194;95.716;2022-10-31T21:29:45;100312.63;;;-9.74;64.75
70458;BME280;57919;56.194;95.716;2022-10-31T21:39:47;100315.94;;;-9.92;64.81
70458;BME280;57919;56.194;95.716;2022-10-31T21:49:48;100312.53;;;-9.83;64.87
70458;BME280;57919;56.194;95.716;2022-10-31T21:59:51;100318.50;;;-9.95;64.77
70458;BME280;57919;56.194;95.716;2022-10-31T22:09:53;100325.53;;;-9.92;64.80
70458;BME280;57919;56.194;95.716;2022-10-31T22:19:54;100327.22;;;-9.96;64.87
70458;BME280;57919;56.194;95.716;2022-10-31T22:29:56;100343.75;;;-9.98;64.91
70458;BME280;57919;56.194;95.716;2022-10-31T22:39:59;100328.50;;;-10.34;64.75
70458;BME280;57919;56.194;95.716;2022-10-31T22:50:01;100338.97;;;-10.34;64.80
70458;BME280;57919;56.194;95.716;2022-10-31T23:00:04;100329.13;;;-10.54;64.74
70458;BME280;57919;56.194;95.716;2022-10-31T23:10:06;100352.72;;;-10.49;65.10
70458;BME280;57919;56.194;95.716;2022-10-31T23:20:08;100353.47;;;-10.56;64.84
70458;BME280;57919;56.194;95.716;2022-10-31T23:30:11;100359.63;;;-10.54;64.91
70458;BME280;57919;56.194;95.716;2022-10-31T23:40:12;100370.88;;;-10.58;64.94
70458;BME280;57919;56.194;95.716;2022-10-31T23:50:14;100356.03;;;-10.61;64.85
